createdAt,value
2022-07-29T00:01:54.475Z,52.58
2022-07-29T00:04:23.412Z,52.76
2022-07-29T00:06:52.398Z,52.82
2022-07-29T00:09:21.275Z,52.67
2022-07-29T00:11:50.353Z,52.59
2022-07-29T00:14:19.364Z,52.87
2022-07-29T00:16:48.389Z,52.95
2022-07-29T00:19:17.339Z,53.18
2022-07-29T00:21:46.132Z,52.85
2022-07-29T00:24:15.419Z,52.95
2022-07-29T00:26:44.516Z,53.05
2022-07-29T00:32:02.436Z,53.09
2022-07-29T00:34:49.522Z,53.28
2022-07-29T00:37:18.590Z,53.14
2022-07-29T00:39:47.417Z,53.27
2022-07-29T00:42:16.940Z,53.23
2022-07-29T00:44:45.826Z,53.57
2022-07-29T00:47:14.893Z,53.49
2022-07-29T00:49:44.092Z,53.42
2022-07-29T00:52:13.782Z,53.63
2022-07-29T00:54:46.466Z,53.41
2022-07-29T00:57:15.516Z,53.50
2022-07-29T00:59:44.349Z,53.48
2022-07-29T01:02:13.422Z,53.67
2022-07-29T01:04:42.706Z,53.76
2022-07-29T01:07:12.481Z,53.80
2022-07-29T01:09:46.058Z,53.62
2022-07-29T01:12:19.427Z,53.76
2022-07-29T01:14:50.219Z,53.82
2022-07-29T01:17:25.244Z,53.95
2022-07-29T01:20:01.703Z,54.00
2022-07-29T01:22:50.260Z,54.05
2022-07-29T01:25:56.289Z,54.27
2022-07-29T01:28:46.721Z,54.06
2022-07-29T01:31:24.980Z,54.24
2022-07-29T01:34:02.422Z,54.21
2022-07-29T01:36:36.107Z,54.25
2022-07-29T01:39:13.311Z,54.45
2022-07-29T01:41:49.364Z,54.29
2022-07-29T01:44:27.842Z,54.53
2022-07-29T01:47:02.762Z,54.86
2022-07-29T01:49:36.625Z,54.73
2022-07-29T01:52:12.128Z,54.79
2022-07-29T01:54:46.662Z,54.83
2022-07-29T01:57:18.161Z,54.94
2022-07-29T01:59:48.328Z,55.13
2022-07-29T02:02:19.267Z,55.25
2022-07-29T02:04:50.679Z,55.13
2022-07-29T02:07:23.352Z,55.42
2022-07-29T02:09:54.685Z,55.37
2022-07-29T02:12:25.073Z,55.47
2022-07-29T02:14:55.861Z,55.38
2022-07-29T02:17:28.911Z,55.41
2022-07-29T02:20:01.307Z,55.35
2022-07-29T02:22:32.244Z,55.40
2022-07-29T02:25:02.067Z,55.63
2022-07-29T02:27:34.968Z,55.59
2022-07-29T02:30:06.806Z,55.84
2022-07-29T02:32:38.452Z,55.61
2022-07-29T02:35:10.817Z,55.88
2022-07-29T02:37:40.858Z,55.88
2022-07-29T02:40:14.813Z,55.79
2022-07-29T02:42:47.552Z,55.89
2022-07-29T02:45:16.484Z,55.93
2022-07-29T02:47:49.537Z,56.04
2022-07-29T02:50:24.660Z,55.95
2022-07-29T02:52:58.675Z,56.02
2022-07-29T02:55:32.981Z,56.10
2022-07-29T02:58:04.432Z,56.16
2022-07-29T03:00:37.722Z,56.24
2022-07-29T03:03:11.929Z,56.14
2022-07-29T03:05:41.551Z,56.46
2022-07-29T03:08:13.816Z,56.37
2022-07-29T03:10:46.190Z,56.49
2022-07-29T03:13:15.808Z,56.61
2022-07-29T03:15:46.617Z,56.61
2022-07-29T03:18:15.692Z,56.88
2022-07-29T03:20:44.811Z,56.96
2022-07-29T03:23:19.132Z,56.95
2022-07-29T03:25:48.550Z,57.15
2022-07-29T03:28:17.583Z,57.04
2022-07-29T03:30:48.157Z,57.14
2022-07-29T03:33:17.408Z,57.15
2022-07-29T03:35:46.363Z,57.17
2022-07-29T03:38:15.241Z,57.22
2022-07-29T03:40:49.573Z,57.44
2022-07-29T03:43:20.421Z,57.31
2022-07-29T03:45:53.917Z,57.41
2022-07-29T03:48:25.369Z,57.37
2022-07-29T03:50:54.672Z,57.47
2022-07-29T03:53:23.749Z,57.53
2022-07-29T03:56:00.125Z,57.46
2022-07-29T03:58:31.360Z,57.49
2022-07-29T04:01:01.499Z,57.35
2022-07-29T04:03:30.712Z,57.31
2022-07-29T04:06:06.148Z,57.44
2022-07-29T04:08:34.120Z,57.57
2022-07-29T04:11:03.943Z,57.48
2022-07-29T04:13:33.320Z,57.60
2022-07-29T04:16:02.344Z,57.47
2022-07-29T04:18:31.510Z,57.63
2022-07-29T04:21:01.313Z,57.54
2022-07-29T04:23:33.997Z,57.63
2022-07-29T04:26:02.788Z,57.52
2022-07-29T04:28:31.573Z,57.62
2022-07-29T04:31:00.637Z,57.56
2022-07-29T04:33:29.575Z,57.72
2022-07-29T04:35:58.483Z,57.68
2022-07-29T04:38:27.930Z,57.90
2022-07-29T04:40:56.787Z,57.74
2022-07-29T04:43:25.658Z,57.91
2022-07-29T04:45:55.998Z,57.80
2022-07-29T04:48:28.652Z,57.90
2022-07-29T04:50:58.040Z,57.75
2022-07-29T04:53:27.428Z,57.88
2022-07-29T04:55:56.248Z,57.90
2022-07-29T04:58:25.260Z,57.62
2022-07-29T05:00:54.129Z,57.72
2022-07-29T05:03:22.952Z,57.76
2022-07-29T05:05:51.781Z,57.66
2022-07-29T05:08:20.758Z,57.46
2022-07-29T05:10:49.612Z,57.60
2022-07-29T05:13:18.549Z,57.13
2022-07-29T05:15:47.447Z,57.38
2022-07-29T05:18:16.476Z,57.05
2022-07-29T05:20:45.352Z,56.93
2022-07-29T05:23:15.145Z,57.00
2022-07-29T05:25:44.955Z,56.88
2022-07-29T05:28:14.220Z,56.71
2022-07-29T05:30:44.788Z,56.80
2022-07-29T05:33:36.134Z,56.72
2022-07-29T05:36:02.409Z,56.42
2022-07-29T05:38:31.477Z,56.40
2022-07-29T05:41:00.869Z,56.39
2022-07-29T05:43:30.728Z,56.39
2022-07-29T05:45:59.717Z,56.03
2022-07-29T05:48:28.700Z,56.10
2022-07-29T05:50:57.545Z,55.68
2022-07-29T05:53:26.323Z,55.67
2022-07-29T05:55:55.497Z,55.67
2022-07-29T05:58:24.474Z,55.82
2022-07-29T06:00:53.727Z,55.91
2022-07-29T06:03:22.523Z,55.57
2022-07-29T06:05:51.424Z,55.58
2022-07-29T06:08:20.607Z,55.20
2022-07-29T06:10:49.399Z,55.01
2022-07-29T06:13:18.273Z,54.95
2022-07-29T06:15:47.232Z,55.02
2022-07-29T06:18:16.046Z,55.01
2022-07-29T06:20:44.859Z,54.76
2022-07-29T06:23:13.644Z,54.42
2022-07-29T06:25:42.925Z,54.27
2022-07-29T06:28:11.870Z,54.30
2022-07-29T06:30:41.407Z,54.03
2022-07-29T06:33:10.383Z,53.90
2022-07-29T06:35:41.897Z,53.81
2022-07-29T06:38:31.685Z,53.19
2022-07-29T06:41:02.688Z,53.20
2022-07-29T06:43:35.286Z,52.80
2022-07-29T06:46:20.994Z,52.94
2022-07-29T06:48:50.247Z,52.59
2022-07-29T06:51:21.773Z,52.22
2022-07-29T06:53:58.200Z,51.65
2022-07-29T06:56:29.941Z,51.67
2022-07-29T06:58:59.193Z,51.00
2022-07-29T07:01:30.581Z,50.73
2022-07-29T07:03:59.595Z,50.86
2022-07-29T07:06:28.601Z,50.66
2022-07-29T07:08:57.700Z,50.44
2022-07-29T07:11:26.761Z,50.45
2022-07-29T07:14:00.657Z,50.08
2022-07-29T07:16:32.658Z,49.92
2022-07-29T07:19:02.043Z,49.40
2022-07-29T07:21:31.511Z,49.42
2022-07-29T07:24:00.918Z,49.33
2022-07-29T07:26:30.145Z,48.63
2022-07-29T07:29:00.739Z,48.08
2022-07-29T07:31:29.670Z,47.83
2022-07-29T07:33:58.654Z,47.79
2022-07-29T07:36:27.712Z,47.82
2022-07-29T07:38:56.716Z,47.26
2022-07-29T07:41:25.539Z,46.87
2022-07-29T07:43:54.364Z,46.17
2022-07-29T07:46:23.310Z,46.15
2022-07-29T07:48:52.698Z,45.80
2022-07-29T07:51:21.638Z,44.64
2022-07-29T07:53:50.797Z,44.69
2022-07-29T07:56:20.040Z,44.48
2022-07-29T07:58:48.974Z,44.30
2022-07-29T08:01:19.437Z,43.54
2022-07-29T08:03:48.692Z,43.02
2022-07-29T08:06:17.979Z,42.91
2022-07-29T08:08:46.848Z,42.47
2022-07-29T08:11:15.772Z,42.50
2022-07-29T08:13:45.012Z,42.20
2022-07-29T08:16:15.474Z,41.11
2022-07-29T08:18:45.700Z,41.27
2022-07-29T08:21:15.839Z,41.33
2022-07-29T08:23:54.341Z,41.21
2022-07-29T08:26:27.901Z,40.35
2022-07-29T08:28:56.805Z,40.78
2022-07-29T08:31:25.814Z,40.55
2022-07-29T08:33:56.594Z,40.38
2022-07-29T08:36:25.437Z,40.09
2022-07-29T08:38:54.349Z,39.88
2022-07-29T08:41:23.543Z,39.16
2022-07-29T08:43:52.776Z,38.55
2022-07-29T08:46:22.608Z,37.52
2022-07-29T08:48:51.683Z,37.24
2022-07-29T08:51:22.113Z,37.71
2022-07-29T08:53:51.725Z,37.35
2022-07-29T08:56:21.325Z,36.74
2022-07-29T08:58:51.897Z,35.56
2022-07-29T09:01:35.688Z,34.57
2022-07-29T09:04:10.945Z,34.09
2022-07-29T09:06:44.850Z,34.44
2022-07-29T09:09:14.592Z,33.89
2022-07-29T09:11:44.156Z,34.09
2022-07-29T09:14:14.472Z,33.81
2022-07-29T09:17:01.041Z,32.87
2022-07-29T09:19:32.187Z,33.30
2022-07-29T09:22:03.503Z,32.93
2022-07-29T09:24:41.388Z,32.46
2022-07-29T09:27:18.680Z,32.58
2022-07-29T09:29:47.730Z,32.87
2022-07-29T09:32:16.558Z,32.25
2022-07-29T09:34:45.505Z,31.69
2022-07-29T09:37:28.208Z,31.84
2022-07-29T09:39:57.037Z,31.98
2022-07-29T09:42:34.235Z,31.61
2022-07-29T09:45:03.661Z,31.69
2022-07-29T09:47:46.109Z,31.05
2022-07-29T09:50:15.634Z,31.32
2022-07-29T09:52:49.577Z,30.56
2022-07-29T09:55:19.773Z,30.48
2022-07-29T09:57:49.263Z,30.57
2022-07-29T10:00:20.005Z,30.13
2022-07-29T10:02:49.506Z,29.36
2022-07-29T10:05:23.141Z,29.21
2022-07-29T10:07:55.231Z,28.51
2022-07-29T10:10:28.354Z,28.77
2022-07-29T10:13:01.848Z,28.70
2022-07-29T10:15:38.964Z,28.79
2022-07-29T10:18:08.770Z,28.32
2022-07-29T10:20:38.394Z,28.21
2022-07-29T10:23:07.504Z,28.40
2022-07-29T10:25:36.414Z,28.00
2022-07-29T10:28:08.023Z,28.00
2022-07-29T10:30:40.383Z,27.89
2022-07-29T10:33:31.827Z,27.49
2022-07-29T10:36:16.880Z,27.58
2022-07-29T10:38:54.825Z,27.21
2022-07-29T10:41:54.030Z,27.22
2022-07-29T10:44:25.952Z,26.93
2022-07-29T10:46:57.666Z,26.08
2022-07-29T10:49:27.931Z,26.18
2022-07-29T10:52:03.465Z,25.87
2022-07-29T10:54:50.585Z,26.30
2022-07-29T10:57:54.242Z,25.88
2022-07-29T11:00:33.344Z,26.00
2022-07-29T11:03:04.509Z,26.13
2022-07-29T11:06:08.755Z,26.06
2022-07-29T11:08:38.500Z,26.06
2022-07-29T11:11:41.399Z,25.89
2022-07-29T11:14:13.193Z,25.87
2022-07-29T11:17:06.028Z,26.03
2022-07-29T11:19:36.717Z,26.33
2022-07-29T11:22:11.276Z,26.45
2022-07-29T11:24:50.163Z,26.44
2022-07-29T11:27:22.449Z,26.64
2022-07-29T11:29:54.380Z,26.54
2022-07-29T11:32:25.359Z,26.46
2022-07-29T11:35:37.200Z,26.68
2022-07-29T11:38:28.095Z,26.44
2022-07-29T11:41:22.363Z,26.60
2022-07-29T11:43:53.900Z,26.82
2022-07-29T11:46:46.047Z,26.98
2022-07-29T11:49:22.105Z,27.08
2022-07-29T11:52:03.356Z,26.94
2022-07-29T11:54:52.356Z,26.97
2022-07-29T11:57:36.062Z,26.97
2022-07-29T12:03:00.588Z,27.27
2022-07-29T12:05:39.064Z,27.37
2022-07-29T12:07:02.431Z,26.95
2022-07-29T12:08:20.027Z,27.29
2022-07-29T12:10:51.065Z,27.44
2022-07-29T12:13:21.448Z,27.48
2022-07-29T12:15:55.702Z,27.68
2022-07-29T12:18:28.752Z,27.67
2022-07-29T12:21:04.063Z,27.70
2022-07-29T12:23:34.350Z,27.37
2022-07-29T12:26:07.710Z,27.47
2022-07-29T12:28:40.190Z,27.58
2022-07-29T12:31:42.039Z,27.63
2022-07-29T12:34:04.687Z,27.80
2022-07-29T12:36:34.281Z,27.72
2022-07-29T12:39:04.114Z,27.64
2022-07-29T12:41:33.279Z,27.60
2022-07-29T12:44:02.600Z,27.59
2022-07-29T12:46:31.913Z,27.67
2022-07-29T12:49:01.005Z,27.54
2022-07-29T12:51:35.299Z,27.44
2022-07-29T12:54:07.716Z,27.35
2022-07-29T12:56:45.296Z,27.26
2022-07-29T12:59:17.235Z,27.40
2022-07-29T13:01:48.379Z,27.36
2022-07-29T13:04:27.778Z,27.49
2022-07-29T13:07:07.597Z,27.33
2022-07-29T13:09:40.881Z,27.56
2022-07-29T13:12:11.456Z,27.37
2022-07-29T13:14:42.036Z,27.29
2022-07-29T13:17:12.772Z,27.45
2022-07-29T13:19:43.390Z,27.52
2022-07-29T13:22:13.889Z,27.38
2022-07-29T13:24:50.936Z,27.32
2022-07-29T13:27:21.844Z,27.38
2022-07-29T13:29:52.804Z,27.38
2022-07-29T13:32:28.384Z,27.27
2022-07-29T13:34:58.347Z,27.36
2022-07-29T13:37:29.900Z,27.39
2022-07-29T13:39:59.536Z,27.21
2022-07-29T13:42:28.466Z,27.41
2022-07-29T13:44:57.341Z,27.61
2022-07-29T13:47:32.342Z,27.46
2022-07-29T13:50:02.242Z,27.50
2022-07-29T13:52:31.595Z,27.62
2022-07-29T13:55:00.768Z,27.60
2022-07-29T13:57:30.275Z,27.71
2022-07-29T13:59:59.820Z,27.55
2022-07-29T14:02:28.636Z,27.30
2022-07-29T14:04:57.525Z,27.30
2022-07-29T14:07:26.412Z,27.22
2022-07-29T14:09:55.200Z,27.23
2022-07-29T14:12:24.135Z,27.30
2022-07-29T14:14:52.917Z,27.11
2022-07-29T14:17:22.222Z,26.84
2022-07-29T14:19:51.116Z,26.85
2022-07-29T14:22:19.915Z,26.79
2022-07-29T14:24:52.640Z,26.96
2022-07-29T14:27:37.358Z,27.06
2022-07-29T14:30:10.961Z,27.07
2022-07-29T14:32:39.919Z,27.17
2022-07-29T14:35:10.542Z,27.05
2022-07-29T14:37:40.632Z,27.21
2022-07-29T14:40:11.732Z,27.12
2022-07-29T14:42:41.079Z,27.14
2022-07-29T14:45:11.091Z,27.05
2022-07-29T14:47:40.227Z,27.12
2022-07-29T14:50:10.650Z,27.09
2022-07-29T14:52:39.485Z,27.04
2022-07-29T14:55:16.436Z,27.10
2022-07-29T14:57:50.365Z,27.05
2022-07-29T15:00:21.139Z,27.12
2022-07-29T15:03:01.948Z,27.09
2022-07-29T15:05:32.115Z,27.07
2022-07-29T15:08:01.459Z,26.88
2022-07-29T15:10:30.547Z,27.03
2022-07-29T15:12:59.507Z,27.15
2022-07-29T15:15:28.300Z,27.23
2022-07-29T15:17:57.269Z,27.43
2022-07-29T15:20:27.546Z,27.15
2022-07-29T15:22:56.853Z,27.23
2022-07-29T15:25:27.985Z,27.22
2022-07-29T15:28:01.083Z,27.38
2022-07-29T15:30:33.565Z,27.36
2022-07-29T15:33:04.551Z,27.35
2022-07-29T15:35:40.399Z,27.41
2022-07-29T15:38:09.849Z,27.52
2022-07-29T15:40:40.615Z,27.39
2022-07-29T15:43:10.349Z,27.41
2022-07-29T15:45:40.886Z,27.43
2022-07-29T15:48:14.676Z,27.41
2022-07-29T15:50:47.099Z,27.50
2022-07-29T15:53:16.568Z,27.48
2022-07-29T15:55:46.527Z,27.46
2022-07-29T15:58:15.375Z,27.45
2022-07-29T16:00:44.269Z,27.49
2022-07-29T16:03:13.269Z,27.61
2022-07-29T16:05:42.217Z,27.53
2022-07-29T16:08:11.138Z,27.34
2022-07-29T16:10:40.558Z,27.35
2022-07-29T16:13:09.372Z,27.47
2022-07-29T16:15:37.810Z,27.53
2022-07-29T16:18:08.368Z,27.60
2022-07-29T16:20:38.401Z,27.51
2022-07-29T16:23:08.915Z,27.50
2022-07-29T16:25:58.587Z,27.68
2022-07-29T16:28:27.175Z,27.59
2022-07-29T16:30:56.663Z,27.74
2022-07-29T16:33:25.796Z,27.66
2022-07-29T16:35:54.683Z,27.72
2022-07-29T16:38:23.639Z,27.69
2022-07-29T16:40:52.577Z,27.82
2022-07-29T16:43:21.502Z,27.81
2022-07-29T16:45:50.549Z,27.95
2022-07-29T16:48:19.399Z,27.95
2022-07-29T16:50:48.238Z,28.24
2022-07-29T16:53:17.321Z,28.32
2022-07-29T16:55:46.120Z,28.45
2022-07-29T16:58:14.942Z,28.51
2022-07-29T17:00:43.935Z,28.64
2022-07-29T17:03:13.574Z,28.63
2022-07-29T17:05:52.038Z,28.89
2022-07-29T17:08:23.813Z,28.91
2022-07-29T17:10:52.623Z,29.06
2022-07-29T17:13:21.656Z,28.94
2022-07-29T17:15:50.664Z,29.00
2022-07-29T17:18:19.515Z,29.03
2022-07-29T17:20:48.397Z,29.35
2022-07-29T17:23:17.292Z,29.52
2022-07-29T17:25:46.068Z,29.63
2022-07-29T17:28:14.863Z,29.66
2022-07-29T17:30:43.652Z,29.49
2022-07-29T17:33:12.495Z,29.86
2022-07-29T17:35:59.572Z,29.90
2022-07-29T17:38:28.405Z,30.13
2022-07-29T17:40:57.433Z,30.30
2022-07-29T17:43:26.352Z,30.52
2022-07-29T17:45:59.235Z,30.88
2022-07-29T17:48:28.587Z,31.44
2022-07-29T17:50:57.817Z,31.55
2022-07-29T17:53:26.757Z,32.16
2022-07-29T17:55:57.572Z,32.14
2022-07-29T17:58:26.836Z,32.41
2022-07-29T18:00:55.724Z,32.90
2022-07-29T18:03:25.188Z,32.98
2022-07-29T18:05:54.599Z,33.46
2022-07-29T18:08:23.573Z,33.59
2022-07-29T18:10:52.935Z,33.77
2022-07-29T18:13:21.801Z,33.83
2022-07-29T18:15:50.680Z,34.02
2022-07-29T18:18:19.524Z,34.32
2022-07-29T18:20:48.557Z,34.50
2022-07-29T18:23:17.355Z,34.77
2022-07-29T18:25:46.219Z,35.22
2022-07-29T18:28:15.063Z,34.89
2022-07-29T18:30:44.531Z,35.59
2022-07-29T18:33:21.202Z,35.83
2022-07-29T18:35:52.423Z,35.77
2022-07-29T18:38:40.183Z,36.10
2022-07-29T18:41:09.034Z,36.30
2022-07-29T18:43:37.868Z,36.71
2022-07-29T18:46:06.873Z,36.71
2022-07-29T18:48:36.093Z,37.26
2022-07-29T18:51:09.263Z,37.31
2022-07-29T18:53:38.515Z,37.52
2022-07-29T18:56:07.371Z,37.78
2022-07-29T18:58:38.336Z,37.71
2022-07-29T19:01:07.302Z,38.10
2022-07-29T19:03:36.111Z,38.28
2022-07-29T19:06:05.320Z,38.63
2022-07-29T19:08:36.575Z,39.04
2022-07-29T19:11:05.368Z,39.17
2022-07-29T19:13:36.390Z,39.27
2022-07-29T19:16:06.170Z,39.63
2022-07-29T19:18:35.175Z,39.63
2022-07-29T19:21:04.065Z,40.15
2022-07-29T19:24:03.836Z,40.45
2022-07-29T19:26:22.107Z,40.76
2022-07-29T19:28:50.911Z,41.10
2022-07-29T19:31:19.739Z,41.23
2022-07-29T19:33:48.640Z,41.27
2022-07-29T19:36:17.487Z,41.63
2022-07-29T19:38:46.274Z,41.79
2022-07-29T19:41:16.432Z,41.98
2022-07-29T19:43:51.058Z,42.47
2022-07-29T19:46:22.192Z,42.43
2022-07-29T19:48:52.312Z,42.65
2022-07-29T19:51:21.903Z,42.88
2022-07-29T19:53:51.014Z,42.88
2022-07-29T19:56:19.812Z,43.20
2022-07-29T19:58:48.649Z,43.15
2022-07-29T20:01:17.629Z,43.32
2022-07-29T20:03:46.444Z,43.41
2022-07-29T20:06:15.275Z,43.62
2022-07-29T20:08:44.653Z,43.35
2022-07-29T20:11:13.455Z,43.54
2022-07-29T20:13:42.235Z,43.67
2022-07-29T20:16:11.060Z,43.87
2022-07-29T20:18:39.931Z,44.01
2022-07-29T20:21:08.728Z,44.13
2022-07-29T20:23:37.586Z,44.28
2022-07-29T20:26:09.432Z,44.51
2022-07-29T20:28:39.659Z,44.82
2022-07-29T20:31:08.544Z,45.09
2022-07-29T20:33:37.496Z,45.27
2022-07-29T20:36:06.984Z,45.47
2022-07-29T20:38:35.829Z,45.79
2022-07-29T20:41:04.791Z,45.89
2022-07-29T20:43:38.939Z,46.13
2022-07-29T20:46:08.137Z,46.33
2022-07-29T20:48:39.118Z,46.40
2022-07-29T20:51:08.514Z,46.88
2022-07-29T20:53:39.759Z,46.77
2022-07-29T20:56:08.668Z,47.36
2022-07-29T20:58:37.660Z,47.17
2022-07-29T21:01:07.084Z,47.51
2022-07-29T21:03:36.471Z,47.88
2022-07-29T21:06:05.627Z,48.19
2022-07-29T21:08:34.729Z,48.63
2022-07-29T21:11:03.794Z,48.95
2022-07-29T21:13:37.323Z,49.00
2022-07-29T21:16:12.483Z,49.29
2022-07-29T21:18:45.949Z,49.15
2022-07-29T21:21:16.062Z,49.71
2022-07-29T21:23:45.899Z,49.71
2022-07-29T21:26:15.401Z,50.05
2022-07-29T21:28:44.160Z,50.31
2022-07-29T21:31:16.072Z,50.43
2022-07-29T21:33:47.060Z,50.55
2022-07-29T21:39:06.703Z,51.49
2022-07-29T21:41:36.396Z,51.31
2022-07-29T21:44:05.416Z,51.72
2022-07-29T21:46:35.987Z,51.91
2022-07-29T21:49:05.096Z,52.20
2022-07-29T21:51:33.951Z,52.40
2022-07-29T21:54:03.946Z,52.73
2022-07-29T21:56:32.734Z,52.47
2022-07-29T21:59:01.501Z,52.93
2022-07-29T22:01:38.842Z,52.63
2022-07-29T22:04:08.846Z,52.81
2022-07-29T22:06:37.764Z,52.77
2022-07-29T22:09:06.613Z,53.17
2022-07-29T22:11:36.169Z,53.22
2022-07-29T22:14:05.123Z,53.34
2022-07-29T22:16:34.009Z,53.61
2022-07-29T22:19:03.581Z,53.82
2022-07-29T22:21:32.452Z,53.43
2022-07-29T22:24:02.336Z,53.56
2022-07-29T22:26:31.208Z,54.05
2022-07-29T22:29:00.060Z,54.20
2022-07-29T22:31:28.953Z,53.95
2022-07-29T22:33:57.778Z,54.27
2022-07-29T22:36:27.166Z,54.00
2022-07-29T22:38:55.946Z,54.17
2022-07-29T22:41:24.715Z,54.26
2022-07-29T22:43:53.611Z,54.42
2022-07-29T22:46:22.697Z,54.50
2022-07-29T22:48:51.599Z,54.45
2022-07-29T22:51:20.549Z,54.71
2022-07-29T22:53:49.489Z,54.83
2022-07-29T22:56:19.060Z,55.09
2022-07-29T22:58:48.596Z,55.47
2022-07-29T23:01:17.896Z,55.33
2022-07-29T23:04:07.423Z,55.64
2022-07-29T23:06:36.289Z,55.61
2022-07-29T23:09:05.252Z,55.42
2022-07-29T23:11:34.111Z,55.62
2022-07-29T23:14:03.092Z,55.79
2022-07-29T23:16:31.985Z,55.54
2022-07-29T23:19:01.768Z,55.67
2022-07-29T23:21:30.585Z,55.76
2022-07-29T23:23:59.476Z,56.11
2022-07-29T23:26:28.312Z,55.86
2022-07-29T23:28:57.217Z,55.75
2022-07-29T23:31:26.121Z,56.04
2022-07-29T23:33:54.960Z,56.03
2022-07-29T23:36:23.898Z,56.36
2022-07-29T23:38:54.405Z,56.33
2022-07-29T23:41:23.659Z,56.42
2022-07-29T23:43:52.540Z,56.78
2022-07-29T23:46:23.859Z,56.64
2022-07-29T23:48:53.162Z,56.94
2022-07-29T23:51:22.175Z,56.54
2022-07-29T23:53:53.274Z,56.79
2022-07-29T23:56:23.212Z,57.00
2022-07-29T23:58:52.203Z,56.83
